Kennedy, Canada
Current Conditions -  °F | °C
As of 6:00 PM on Sunday 25 Jan 2015 (Local Time) from CYEN Reporting Station
Overcast Overcast  
Wind Chill: 26°   Ceiling: 10000
Heat Index: 36°   Visibility: 15mi
Dew Point: 32°   Wind: 16mph
Humidity: 87%   Direction: 220°SW
Pressure: 29.71"   Gusts: NA
Location:  50.02°N, 102.35°W
Report Text: CYEN 260000Z 22014KT 15SM SCT025 BKN100 OVC230 02/M00 A2971 RMKSC2AC1CI0 PRESFR SLP089
Loading
Personal Weather Stations






























Interactive Weather Map New forecast layout! Learn more

10-Day Weather Forecast

Advertisements
Track Severe Weather on mobile